x

South Hatteras - 225 South Of Cape Hatteras (41002) Wave Buoy

8:50 - Thu 18th Sep 2014 All times are EDT. -4 hours from GMT.

  • Sig Wave height 3.6ft
  • Swell Direction
  • Peak Period 10s
  • Average Period 6s
  • Wind
    9mph, 13mph gusts
  • Sea Temp 82°f
  • Luft Temp 79°f
  • Sea Pressure 1012.9mb
  • South Hatteras - 225 South Of Cape Hatteras
  • South Hatteras - 225 South Of Cape Hatteras

More Historic Weather Station data

Upgrade to MSW Pro to gain access to the past 30 days of data for over 8000 Wavebouys and Weather Stations around the globe.

Join Pro

Comparision Forecast

View Surf forecast
   
Do 09/18 8:50 3.5ft 10s 6s 9 13 mph 1012.9mb 82f 79f
7:50 4ft 10s 6s 11 13 mph 1012.4mb 82f 78f
6:50 4ft 12s 6s 13 16 mph 1012mb 82f 78f
5:50 4.5ft 10s 6s 9 11 mph 1011.4mb 82f 78f
4:50 4.5ft 11s 6s 9 11 mph 1011.2mb 82f 78f
3:50 4.5ft 12s 7s 9 11 mph 1010.8mb 82f 78f
2:50 5ft 13s 7s 9 11 mph 1011.1mb 82f 78f
1:50 5ft 13s 7s 9 11 mph 1011mb 82f 78f
12:50 5ft 11s 7s 7 9 mph 1011.4mb 82f 78f
Mi 09/17 11:50 5.5ft 11s 7s 7 11 mph 1011.5mb 82f 78f
10:50 5.5ft 13s 8s 11 13 mph 1011.5mb 82f 78f
9:50 5.5ft 14s 7s 9 11 mph 1011.3mb 82f 78f
8:50 6ft 14s 9s 7 9 mph 1011.1mb 82f 78f
7:50 6ft 12s 8s 9 11 mph 1010.4mb 82f 78f
6:50 5.5ft 12s 8s 11 13 mph 1010.1mb 82f 78f
5:50 6ft 11s 8s 7 9 mph 1010.1mb 82f 78f
4:50 6ft 13s 8s 7 11 mph 1009.7mb 82f 77f
3:50 7ft 13s 8s 7 11 mph 1009.7mb 82f 76f
2:50 7ft 14s 8s 9 11 mph 1010.4mb 82f 76f
1:50 6.5ft 14s 8s 4 7 mph 1011.2mb 82f 76f
12:50 6ft 13s 8s 4
mph
1011.9mb 82f 75f
11:50 7ft 14s 9s 7 9 mph 1012.7mb 82f 75f
10:50 6.5ft 13s 10s 20 25 mph 1012.6mb 82f 74f
9:50 6ft 14s 9s 7 9 mph 1012.7mb 82f 78f
8:50 5.5ft 13s 9s 7 9 mph 1012.9mb 82f 77f
7:50 6.5ft 14s 10s 7 9 mph 1012.4mb 82f 76f
6:50 7.5ft 14s 11s 7 9 mph 1012.6mb 82f 77f
5:50 6ft 14s 9s 4 7 mph 1012.4mb 82f 77f
4:50 6ft 15s 10s 9 13 mph 1012.5mb 82f 74f
3:50 5ft 14s 10s 7 11 mph 1012.6mb 82f 77f
2:50 5ft 14s 9s 9 11 mph 1013.3mb 82f 79f
1:50 5ft 15s 9s 11 13 mph 1013.9mb 82f 79f
12:50 4.5ft 14s 8s 9 11 mph 1014.3mb 82f 79f
Di 09/16 11:50 4.5ft 15s 7s 7 11 mph 1014.8mb 82f 79f
10:50 4.5ft 14s 7s 9 13 mph 1015mb 82f 78f
9:50 3.5ft 14s 5s 11 13 mph 1015mb 82f 78f
8:50 3.5ft 13s 5s 13 16 mph 1015mb 82f 77f
7:50 3.5ft 12s 5s 18 20 mph 1014.3mb 82f 77f
6:50 3.5ft 12s 5s 13 18 mph 1015mb 83f 76f
4:50 3ft 7s 5s 9 13 mph 1015.3mb 83f 79f
3:50 3ft 13s 6s 7 9 mph 1015.3mb 83f 79f
2:50 3ft 13s 5s 4 7 mph 1015.5mb 83f 79f
1:50 3ft 7s 5s 7 9 mph 1016.4mb 83f 79f
12:50 3ft 7s 5s 11 13 mph 1017mb 83f 79f
11:50 2.5ft 13s 6s 11 13 mph 1017.2mb 83f 80f
10:50 2.5ft 7s 5s 4 7 mph 1017.8mb 83f 80f
9:50 3ft 13s 5s 7 9 mph 1017.9mb 83f 81f
8:50 3ft 7s 5s 7 9 mph 1018.3mb 83f 80f
7:50 3ft 7s 5s 4 9 mph 1017.7mb 83f 80f
6:50 3ft 6s 5s 9 11 mph 1017.8mb 83f 80f
5:50 2.5ft 6s 5s 9 11 mph 1017.7mb 83f 79f
4:50 3ft 6s 5s 11 16 mph 1017.8mb 83f 79f
3:50 3ft 6s 5s 13 16 mph 1018.1mb 83f 80f
2:50 3ft 6s 5s 9 11 mph 1018.4mb 83f 80f
1:50 3ft 8s 5s 9
mph
1019.1mb 83f 80f
12:50 3ft 8s 5s 7 9 mph 1019.3mb 83f 80f
Mo 09/15 11:50 3ft 5s 5s 7 9 mph 1019.9mb 83f 80f
10:50 3ft 6s 5s 4 7 mph 1020.1mb 83f 80f
9:50 3.5ft 6s 5s 7 9 mph 1020.1mb 83f 80f
8:50 3.5ft 6s 5s 4 9 mph 1020mb 83f 80f
7:50 3.5ft 6s 5s 7 9 mph 1019.4mb 82f 80f
6:50 3ft 6s 5s 9 13 mph 1018.9mb 83f 79f
5:50 3ft 5s 5s 11
mph
1018.9mb 83f 79f
4:50 3.5ft 5s 5s 11 13 mph 1019.2mb 83f 79f
3:50 3.5ft 6s 5s 9 11 mph 1019.5mb 83f 79f
2:50 3.5ft 6s 5s 4 7 mph 1020.2mb 83f 77f
1:50 4ft 5s 5s 2 4 mph 1021.2mb 83f 76f
12:50 4.5ft 5s 5s 9 11 mph 1022.3mb 83f 75f
11:50 4.5ft 5s 5s 11 16 mph 1022.4mb 83f 76f
10:50 4.5ft 5s 5s 18 25 mph 1021.9mb 83f 78f
9:50 4ft 5s 4s 20 25 mph 1021.5mb 83f 78f
8:50 3.5ft 5s 4s 25 29 mph 1021.1mb 83f 76f
7:50 3ft 4s 4s 16 20 mph 1021.2mb 83f 80f
6:50 3.5ft 4s 4s 16 22 mph 1021mb 83f 79f
5:50 3ft 4s 4s 18 20 mph 1020.9mb 83f 79f
4:50 2.5ft 4s 4s 16 18 mph 1020.4mb 83f 78f
3:50 2.5ft 8s 4s 7 13 mph 1020.5mb 83f 76f
2:50 2.5ft 7s 4s 13 16 mph 1020.3mb 83f 81f
1:50 2.5ft 8s 4s 13 18 mph 1021mb 83f 81f
12:50 2.5ft 8s 5s 13 16 mph 1021.2mb 83f 81f
So 09/14 11:50 2.5ft 5s 5s 13 16 mph 1021.4mb 83f 80f
10:50 2.5ft 5s 5s 11 13 mph 1021.6mb 83f 80f
9:50 2.5ft 8s 5s 9 11 mph 1021.9mb 83f 80f
8:50 2.5ft 5s 5s 4 7 mph 1021.9mb 83f 80f
7:50 2.5ft 4s 5s 9 11 mph 1021.6mb 83f 79f
6:50 2.5ft 5s 5s 7 9 mph 1021.1mb 83f 79f
5:50 2.5ft 4s 5s 4 7 mph 1020.5mb 83f 79f
4:50 2.5ft 4s 4s 9 11 mph 1020.9mb 83f 78f
3:50 2.5ft 5s 4s 11 13 mph 1021.3mb 83f 78f
2:50 3ft 5s 4s 9 11 mph 1021.8mb 83f 77f